sensor_id;sensor_type;location;lat;lon;timestamp;pressure;altitude;pressure_sealevel;temperature;humidity
54389;BME280;40975;50.390;8.640;2023-04-29T00:02:03;98691.69;;;8.96;100.00
54389;BME280;40975;50.390;8.640;2023-04-29T00:04:29;98692.84;;;8.93;100.00
54389;BME280;40975;50.390;8.640;2023-04-29T00:06:54;98687.94;;;8.89;100.00
54389;BME280;40975;50.390;8.640;2023-04-29T00:09:20;98687.13;;;8.88;100.00
54389;BME280;40975;50.390;8.640;2023-04-29T00:11:45;98692.41;;;8.88;100.00
54389;BME280;40975;50.390;8.640;2023-04-29T00:14:12;98696.19;;;8.85;100.00
54389;BME280;40975;50.390;8.640;2023-04-29T00:16:37;98697.47;;;8.81;100.00
54389;BME280;40975;50.390;8.640;2023-04-29T00:19:03;98694.00;;;8.81;100.00
54389;BME280;40975;50.390;8.640;2023-04-29T00:21:28;98698.59;;;8.79;100.00
54389;BME280;40975;50.390;8.640;2023-04-29T00:23:54;98692.06;;;8.73;100.00
54389;BME280;40975;50.390;8.640;2023-04-29T00:26:20;98690.94;;;8.76;100.00
54389;BME280;40975;50.390;8.640;2023-04-29T00:28:47;98675.13;;;8.66;100.00
54389;BME280;40975;50.390;8.640;2023-04-29T00:31:12;98680.88;;;8.79;100.00
54389;BME280;40975;50.390;8.640;2023-04-29T00:33:38;98677.56;;;8.77;100.00
54389;BME280;40975;50.390;8.640;2023-04-29T00:36:05;98682.56;;;8.80;100.00
54389;BME280;40975;50.390;8.640;2023-04-29T00:38:30;98673.63;;;8.81;100.00
54389;BME280;40975;50.390;8.640;2023-04-29T00:40:56;98683.50;;;8.89;100.00
54389;BME280;40975;50.390;8.640;2023-04-29T00:43:21;98688.44;;;9.02;100.00
54389;BME280;40975;50.390;8.640;2023-04-29T00:45:47;98682.59;;;9.08;100.00
54389;BME280;40975;50.390;8.640;2023-04-29T00:48:13;98685.94;;;9.28;100.00
54389;BME280;40975;50.390;8.640;2023-04-29T00:50:40;98684.22;;;9.37;100.00
54389;BME280;40975;50.390;8.640;2023-04-29T00:53:07;98687.25;;;9.42;100.00
54389;BME280;40975;50.390;8.640;2023-04-29T00:55:32;98692.47;;;9.52;100.00
54389;BME280;40975;50.390;8.640;2023-04-29T00:57:59;98698.59;;;9.53;100.00
54389;BME280;40975;50.390;8.640;2023-04-29T01:00:27;98700.56;;;9.51;100.00
54389;BME280;40975;50.390;8.640;2023-04-29T01:02:53;98689.00;;;9.52;100.00
54389;BME280;40975;50.390;8.640;2023-04-29T01:05:21;98696.66;;;9.55;100.00
54389;BME280;40975;50.390;8.640;2023-04-29T01:10:38;98700.56;;;9.51;100.00
54389;BME280;40975;50.390;8.640;2023-04-29T01:13:16;98700.47;;;9.42;100.00
54389;BME280;40975;50.390;8.640;2023-04-29T01:15:58;98702.97;;;9.44;100.00
54389;BME280;40975;50.390;8.640;2023-04-29T01:18:28;98711.06;;;9.42;100.00
54389;BME280;40975;50.390;8.640;2023-04-29T01:20:57;98706.75;;;9.41;100.00
54389;BME280;40975;50.390;8.640;2023-04-29T01:23:27;98705.53;;;9.36;100.00
54389;BME280;40975;50.390;8.640;2023-04-29T01:25:53;98705.25;;;9.39;100.00
54389;BME280;40975;50.390;8.640;2023-04-29T01:28:56;98711.31;;;9.49;100.00
54389;BME280;40975;50.390;8.640;2023-04-29T01:34:14;98710.91;;;9.44;100.00
54389;BME280;40975;50.390;8.640;2023-04-29T01:37:04;98714.56;;;9.61;100.00
54389;BME280;40975;50.390;8.640;2023-04-29T01:39:41;98710.44;;;9.76;100.00
54389;BME280;40975;50.390;8.640;2023-04-29T01:42:19;98706.34;;;9.82;100.00
54389;BME280;40975;50.390;8.640;2023-04-29T01:44:48;98710.03;;;9.89;100.00
54389;BME280;40975;50.390;8.640;2023-04-29T01:47:19;98710.50;;;9.85;100.00
54389;BME280;40975;50.390;8.640;2023-04-29T01:49:49;98709.00;;;9.82;100.00
54389;BME280;40975;50.390;8.640;2023-04-29T01:52:14;98708.31;;;9.80;100.00
54389;BME280;40975;50.390;8.640;2023-04-29T01:54:43;98710.56;;;9.75;100.00
54389;BME280;40975;50.390;8.640;2023-04-29T01:57:10;98707.56;;;9.70;100.00
54389;BME280;40975;50.390;8.640;2023-04-29T01:59:55;98715.78;;;9.67;100.00
54389;BME280;40975;50.390;8.640;2023-04-29T02:02:42;98709.28;;;9.61;100.00
54389;BME280;40975;50.390;8.640;2023-04-29T02:05:23;98716.09;;;9.63;100.00
54389;BME280;40975;50.390;8.640;2023-04-29T02:07:55;98719.75;;;9.62;100.00
54389;BME280;40975;50.390;8.640;2023-04-29T02:10:20;98722.53;;;9.61;100.00
54389;BME280;40975;50.390;8.640;2023-04-29T02:12:49;98718.72;;;9.63;100.00
54389;BME280;40975;50.390;8.640;2023-04-29T02:15:16;98724.19;;;9.62;100.00
54389;BME280;40975;50.390;8.640;2023-04-29T02:17:42;98720.50;;;9.73;100.00
54389;BME280;40975;50.390;8.640;2023-04-29T02:20:07;98717.69;;;9.74;100.00
54389;BME280;40975;50.390;8.640;2023-04-29T02:22:34;98725.88;;;9.81;100.00
54389;BME280;40975;50.390;8.640;2023-04-29T02:24:59;98729.88;;;9.85;100.00
54389;BME280;40975;50.390;8.640;2023-04-29T02:27:25;98739.19;;;9.89;100.00
54389;BME280;40975;50.390;8.640;2023-04-29T02:29:50;98735.63;;;9.99;100.00
54389;BME280;40975;50.390;8.640;2023-04-29T02:32:16;98750.78;;;10.06;100.00
54389;BME280;40975;50.390;8.640;2023-04-29T02:34:44;98744.94;;;10.21;100.00
54389;BME280;40975;50.390;8.640;2023-04-29T02:37:10;98744.94;;;10.21;100.00
54389;BME280;40975;50.390;8.640;2023-04-29T02:39:35;98753.28;;;10.26;100.00
54389;BME280;40975;50.390;8.640;2023-04-29T02:42:00;98751.97;;;10.30;100.00
54389;BME280;40975;50.390;8.640;2023-04-29T02:44:27;98751.75;;;10.23;100.00
54389;BME280;40975;50.390;8.640;2023-04-29T02:46:53;98750.84;;;10.33;100.00
54389;BME280;40975;50.390;8.640;2023-04-29T02:49:18;98753.63;;;10.31;100.00
54389;BME280;40975;50.390;8.640;2023-04-29T02:51:44;98738.47;;;10.23;100.00
54389;BME280;40975;50.390;8.640;2023-04-29T02:54:10;98752.47;;;10.34;100.00
54389;BME280;40975;50.390;8.640;2023-04-29T02:56:36;98756.44;;;10.30;100.00
54389;BME280;40975;50.390;8.640;2023-04-29T02:59:01;98760.03;;;10.20;100.00
54389;BME280;40975;50.390;8.640;2023-04-29T03:01:26;98755.53;;;10.21;100.00
54389;BME280;40975;50.390;8.640;2023-04-29T03:03:52;98757.38;;;10.20;100.00
54389;BME280;40975;50.390;8.640;2023-04-29T03:06:18;98761.63;;;10.13;100.00
54389;BME280;40975;50.390;8.640;2023-04-29T03:08:44;98765.78;;;10.16;100.00
54389;BME280;40975;50.390;8.640;2023-04-29T03:11:09;98763.97;;;10.16;100.00
54389;BME280;40975;50.390;8.640;2023-04-29T03:13:34;98761.00;;;10.19;100.00
54389;BME280;40975;50.390;8.640;2023-04-29T03:16:00;98774.09;;;10.21;100.00
54389;BME280;40975;50.390;8.640;2023-04-29T03:18:26;98767.53;;;10.25;100.00
54389;BME280;40975;50.390;8.640;2023-04-29T03:20:52;98765.00;;;10.23;100.00
54389;BME280;40975;50.390;8.640;2023-04-29T03:23:18;98776.28;;;10.25;100.00
54389;BME280;40975;50.390;8.640;2023-04-29T03:25:43;98777.66;;;10.11;100.00
54389;BME280;40975;50.390;8.640;2023-04-29T03:28:09;98764.88;;;10.07;100.00
54389;BME280;40975;50.390;8.640;2023-04-29T03:30:36;98768.28;;;9.99;100.00
54389;BME280;40975;50.390;8.640;2023-04-29T03:33:01;98772.22;;;9.95;100.00
54389;BME280;40975;50.390;8.640;2023-04-29T03:35:28;98767.75;;;9.95;100.00
54389;BME280;40975;50.390;8.640;2023-04-29T03:38:12;98758.97;;;9.95;100.00
54389;BME280;40975;50.390;8.640;2023-04-29T03:40:38;98776.22;;;9.99;100.00
54389;BME280;40975;50.390;8.640;2023-04-29T03:43:03;98779.31;;;9.94;100.00
54389;BME280;40975;50.390;8.640;2023-04-29T03:45:29;98777.53;;;9.95;100.00
54389;BME280;40975;50.390;8.640;2023-04-29T03:47:55;98787.69;;;10.00;100.00
54389;BME280;40975;50.390;8.640;2023-04-29T03:50:22;98794.41;;;9.94;100.00
54389;BME280;40975;50.390;8.640;2023-04-29T03:52:47;98786.31;;;9.95;100.00
54389;BME280;40975;50.390;8.640;2023-04-29T03:55:15;98798.13;;;9.83;100.00
54389;BME280;40975;50.390;8.640;2023-04-29T03:57:42;98791.69;;;9.86;100.00
54389;BME280;40975;50.390;8.640;2023-04-29T04:00:08;98797.72;;;9.78;100.00
54389;BME280;40975;50.390;8.640;2023-04-29T04:02:43;98803.63;;;9.72;100.00
54389;BME280;40975;50.390;8.640;2023-04-29T04:05:09;98808.63;;;9.75;100.00
54389;BME280;40975;50.390;8.640;2023-04-29T04:07:35;98804.28;;;9.74;100.00
54389;BME280;40975;50.390;8.640;2023-04-29T04:10:21;98802.94;;;9.70;100.00
54389;BME280;40975;50.390;8.640;2023-04-29T04:12:47;98813.34;;;9.81;100.00
54389;BME280;40975;50.390;8.640;2023-04-29T04:15:12;98807.72;;;9.84;100.00
54389;BME280;40975;50.390;8.640;2023-04-29T04:17:38;98825.22;;;9.77;100.00
54389;BME280;40975;50.390;8.640;2023-04-29T04:20:04;98822.31;;;9.70;100.00
54389;BME280;40975;50.390;8.640;2023-04-29T04:22:29;98825.13;;;9.69;100.00
54389;BME280;40975;50.390;8.640;2023-04-29T04:25:11;98832.34;;;9.76;100.00
54389;BME280;40975;50.390;8.640;2023-04-29T04:27:36;98817.94;;;9.79;100.00
54389;BME280;40975;50.390;8.640;2023-04-29T04:30:06;98822.31;;;9.70;100.00
54389;BME280;40975;50.390;8.640;2023-04-29T04:32:32;98820.88;;;9.76;100.00
54389;BME280;40975;50.390;8.640;2023-04-29T04:34:57;98817.50;;;9.84;100.00
54389;BME280;40975;50.390;8.640;2023-04-29T04:37:23;98824.91;;;9.80;100.00
54389;BME280;40975;50.390;8.640;2023-04-29T04:39:52;98834.00;;;9.77;100.00
54389;BME280;40975;50.390;8.640;2023-04-29T04:42:18;98842.50;;;9.81;100.00
54389;BME280;40975;50.390;8.640;2023-04-29T04:44:45;98851.25;;;9.82;100.00
54389;BME280;40975;50.390;8.640;2023-04-29T04:47:17;98852.25;;;9.80;100.00
54389;BME280;40975;50.390;8.640;2023-04-29T04:50:09;98852.34;;;9.89;100.00
54389;BME280;40975;50.390;8.640;2023-04-29T04:52:36;98854.84;;;9.90;100.00
54389;BME280;40975;50.390;8.640;2023-04-29T04:55:13;98851.22;;;9.91;100.00
54389;BME280;40975;50.390;8.640;2023-04-29T04:57:42;98860.25;;;9.99;100.00
54389;BME280;40975;50.390;8.640;2023-04-29T05:00:08;98849.88;;;10.05;100.00
54389;BME280;40975;50.390;8.640;2023-04-29T05:02:34;98853.97;;;10.00;100.00
54389;BME280;40975;50.390;8.640;2023-04-29T05:05:00;98854.66;;;10.02;100.00
54389;BME280;40975;50.390;8.640;2023-04-29T05:07:28;98858.66;;;10.06;100.00
54389;BME280;40975;50.390;8.640;2023-04-29T05:09:59;98862.28;;;10.05;100.00
54389;BME280;40975;50.390;8.640;2023-04-29T05:12:27;98863.19;;;9.95;100.00
54389;BME280;40975;50.390;8.640;2023-04-29T05:14:56;98865.69;;;9.97;100.00
54389;BME280;40975;50.390;8.640;2023-04-29T05:17:23;98867.75;;;10.03;100.00
54389;BME280;40975;50.390;8.640;2023-04-29T05:19:48;98866.69;;;9.96;100.00
54389;BME280;40975;50.390;8.640;2023-04-29T05:22:14;98867.06;;;10.01;100.00
54389;BME280;40975;50.390;8.640;2023-04-29T05:24:39;98873.50;;;9.99;100.00
54389;BME280;40975;50.390;8.640;2023-04-29T05:27:05;98868.88;;;10.01;100.00
54389;BME280;40975;50.390;8.640;2023-04-29T05:29:30;98875.69;;;10.03;100.00
54389;BME280;40975;50.390;8.640;2023-04-29T05:31:58;98868.56;;;10.04;100.00
54389;BME280;40975;50.390;8.640;2023-04-29T05:34:24;98878.88;;;10.07;100.00
54389;BME280;40975;50.390;8.640;2023-04-29T05:36:50;98871.38;;;10.02;100.00
54389;BME280;40975;50.390;8.640;2023-04-29T05:39:16;98882.50;;;10.06;100.00
54389;BME280;40975;50.390;8.640;2023-04-29T05:41:42;98889.41;;;9.99;100.00
54389;BME280;40975;50.390;8.640;2023-04-29T05:44:15;98896.75;;;10.05;100.00
54389;BME280;40975;50.390;8.640;2023-04-29T05:46:41;98902.91;;;10.05;100.00
54389;BME280;40975;50.390;8.640;2023-04-29T05:49:06;98904.16;;;10.01;100.00
54389;BME280;40975;50.390;8.640;2023-04-29T05:51:31;98909.91;;;9.96;100.00
54389;BME280;40975;50.390;8.640;2023-04-29T05:53:57;98912.66;;;10.05;100.00
54389;BME280;40975;50.390;8.640;2023-04-29T05:56:24;98917.69;;;10.08;100.00
54389;BME280;40975;50.390;8.640;2023-04-29T05:58:50;98918.50;;;10.08;100.00
54389;BME280;40975;50.390;8.640;2023-04-29T06:01:16;98922.00;;;10.09;100.00
54389;BME280;40975;50.390;8.640;2023-04-29T06:03:42;98932.53;;;10.19;100.00
54389;BME280;40975;50.390;8.640;2023-04-29T06:06:33;98936.03;;;10.19;100.00
54389;BME280;40975;50.390;8.640;2023-04-29T06:09:08;98946.34;;;10.22;100.00
54389;BME280;40975;50.390;8.640;2023-04-29T06:11:33;98945.50;;;10.22;100.00
54389;BME280;40975;50.390;8.640;2023-04-29T06:14:00;98944.25;;;10.26;100.00
54389;BME280;40975;50.390;8.640;2023-04-29T06:16:25;98951.25;;;10.17;100.00
54389;BME280;40975;50.390;8.640;2023-04-29T06:18:52;98957.78;;;10.23;100.00
54389;BME280;40975;50.390;8.640;2023-04-29T06:21:17;98963.09;;;10.23;100.00
54389;BME280;40975;50.390;8.640;2023-04-29T06:23:43;98973.69;;;10.23;100.00
54389;BME280;40975;50.390;8.640;2023-04-29T06:26:14;98964.81;;;10.14;100.00
54389;BME280;40975;50.390;8.640;2023-04-29T06:28:40;98970.81;;;10.16;100.00
54389;BME280;40975;50.390;8.640;2023-04-29T06:31:05;98976.97;;;10.17;100.00
54389;BME280;40975;50.390;8.640;2023-04-29T06:33:31;98979.72;;;10.15;100.00
54389;BME280;40975;50.390;8.640;2023-04-29T06:35:58;98982.97;;;10.09;100.00
54389;BME280;40975;50.390;8.640;2023-04-29T06:38:42;98979.34;;;10.10;100.00
54389;BME280;40975;50.390;8.640;2023-04-29T06:41:20;98991.13;;;10.25;100.00
54389;BME280;40975;50.390;8.640;2023-04-29T06:44:12;98994.41;;;10.09;100.00
54389;BME280;40975;50.390;8.640;2023-04-29T06:46:50;98991.88;;;10.18;100.00
54389;BME280;40975;50.390;8.640;2023-04-29T06:49:24;99001.38;;;10.10;100.00
54389;BME280;40975;50.390;8.640;2023-04-29T06:51:50;99001.47;;;10.19;100.00
54389;BME280;40975;50.390;8.640;2023-04-29T06:54:15;99002.28;;;10.29;100.00
54389;BME280;40975;50.390;8.640;2023-04-29T06:56:41;99010.78;;;10.33;100.00
54389;BME280;40975;50.390;8.640;2023-04-29T06:59:07;99007.56;;;10.39;100.00
54389;BME280;40975;50.390;8.640;2023-04-29T07:01:34;99011.75;;;10.41;100.00
54389;BME280;40975;50.390;8.640;2023-04-29T07:03:59;99019.66;;;10.51;100.00
54389;BME280;40975;50.390;8.640;2023-04-29T07:06:24;99020.31;;;10.53;100.00
54389;BME280;40975;50.390;8.640;2023-04-29T07:08:51;99021.00;;;10.55;100.00
54389;BME280;40975;50.390;8.640;2023-04-29T07:11:16;99021.88;;;10.56;100.00
54389;BME280;40975;50.390;8.640;2023-04-29T07:13:41;99030.91;;;10.63;100.00
54389;BME280;40975;50.390;8.640;2023-04-29T07:16:16;99030.94;;;10.53;100.00
54389;BME280;40975;50.390;8.640;2023-04-29T07:18:44;99033.47;;;10.55;100.00
54389;BME280;40975;50.390;8.640;2023-04-29T07:21:09;99029.97;;;10.54;100.00
54389;BME280;40975;50.390;8.640;2023-04-29T07:23:35;99029.66;;;10.57;100.00
54389;BME280;40975;50.390;8.640;2023-04-29T07:26:11;99039.00;;;10.62;100.00
54389;BME280;40975;50.390;8.640;2023-04-29T07:28:38;99040.81;;;10.61;100.00
54389;BME280;40975;50.390;8.640;2023-04-29T07:31:03;99043.72;;;10.68;100.00
54389;BME280;40975;50.390;8.640;2023-04-29T07:33:29;99045.75;;;10.74;100.00
54389;BME280;40975;50.390;8.640;2023-04-29T07:35:57;99041.84;;;10.78;100.00
54389;BME280;40975;50.390;8.640;2023-04-29T07:38:22;99045.91;;;10.72;100.00
54389;BME280;40975;50.390;8.640;2023-04-29T07:40:47;99053.97;;;10.81;100.00
54389;BME280;40975;50.390;8.640;2023-04-29T07:43:13;99048.22;;;10.85;100.00
54389;BME280;40975;50.390;8.640;2023-04-29T07:45:38;99050.56;;;10.88;100.00
54389;BME280;40975;50.390;8.640;2023-04-29T07:48:04;99054.38;;;10.86;100.00
54389;BME280;40975;50.390;8.640;2023-04-29T07:50:30;99057.78;;;10.96;100.00
54389;BME280;40975;50.390;8.640;2023-04-29T07:52:58;99060.75;;;10.93;100.00
54389;BME280;40975;50.390;8.640;2023-04-29T07:55:24;99063.22;;;10.95;100.00
54389;BME280;40975;50.390;8.640;2023-04-29T07:57:51;99067.56;;;10.96;100.00
54389;BME280;40975;50.390;8.640;2023-04-29T08:00:17;99071.59;;;11.00;100.00
54389;BME280;40975;50.390;8.640;2023-04-29T08:02:45;99070.28;;;11.04;100.00
54389;BME280;40975;50.390;8.640;2023-04-29T08:05:13;99075.56;;;11.14;100.00
54389;BME280;40975;50.390;8.640;2023-04-29T08:07:39;99080.69;;;11.15;100.00
54389;BME280;40975;50.390;8.640;2023-04-29T08:10:05;99073.03;;;11.30;100.00
54389;BME280;40975;50.390;8.640;2023-04-29T08:12:30;99079.03;;;11.32;100.00
54389;BME280;40975;50.390;8.640;2023-04-29T08:14:55;99084.19;;;11.34;100.00
54389;BME280;40975;50.390;8.640;2023-04-29T08:17:21;99086.94;;;11.42;100.00
54389;BME280;40975;50.390;8.640;2023-04-29T08:19:46;99094.66;;;11.54;100.00
54389;BME280;40975;50.390;8.640;2023-04-29T08:22:12;99100.81;;;11.54;100.00
54389;BME280;40975;50.390;8.640;2023-04-29T08:24:38;99095.22;;;11.57;100.00
54389;BME280;40975;50.390;8.640;2023-04-29T08:27:04;99099.59;;;11.66;100.00
54389;BME280;40975;50.390;8.640;2023-04-29T08:29:30;99102.72;;;11.62;100.00
54389;BME280;40975;50.390;8.640;2023-04-29T08:31:57;99107.56;;;11.66;100.00
54389;BME280;40975;50.390;8.640;2023-04-29T08:34:22;99108.16;;;11.60;100.00
54389;BME280;40975;50.390;8.640;2023-04-29T08:36:47;99113.13;;;11.55;100.00
54389;BME280;40975;50.390;8.640;2023-04-29T08:39:13;99117.97;;;11.60;100.00
54389;BME280;40975;50.390;8.640;2023-04-29T08:41:38;99115.31;;;11.42;100.00
54389;BME280;40975;50.390;8.640;2023-04-29T08:44:04;99119.81;;;11.41;100.00
54389;BME280;40975;50.390;8.640;2023-04-29T08:46:30;99116.75;;;11.36;100.00
54389;BME280;40975;50.390;8.640;2023-04-29T08:48:55;99116.41;;;11.31;100.00
54389;BME280;40975;50.390;8.640;2023-04-29T08:51:21;99123.91;;;11.35;100.00
54389;BME280;40975;50.390;8.640;2023-04-29T08:53:47;99081.69;;;11.14;100.00
54389;BME280;40975;50.390;8.640;2023-04-29T08:56:15;99127.16;;;11.65;100.00
54389;BME280;40975;50.390;8.640;2023-04-29T08:58:44;99111.25;;;12.18;100.00
54389;BME280;40975;50.390;8.640;2023-04-29T09:01:11;99116.97;;;12.58;100.00
54389;BME280;40975;50.390;8.640;2023-04-29T09:06:41;99119.16;;;15.17;100.00
54389;BME280;40975;50.390;8.640;2023-04-29T09:09:06;99123.22;;;15.36;99.01
54389;BME280;40975;50.390;8.640;2023-04-29T09:11:32;99124.25;;;15.04;96.84
54389;BME280;40975;50.390;8.640;2023-04-29T09:13:59;99124.25;;;15.04;97.96
54389;BME280;40975;50.390;8.640;2023-04-29T09:16:26;99121.56;;;14.64;94.72
54389;BME280;40975;50.390;8.640;2023-04-29T09:18:52;99133.28;;;14.55;98.33
54389;BME280;40975;50.390;8.640;2023-04-29T09:21:19;99136.31;;;14.43;96.77
54389;BME280;40975;50.390;8.640;2023-04-29T09:23:46;99132.16;;;14.33;95.39
54389;BME280;40975;50.390;8.640;2023-04-29T09:26:13;99137.09;;;14.60;96.27
54389;BME280;40975;50.390;8.640;2023-04-29T09:28:38;99136.44;;;14.58;94.58
54389;BME280;40975;50.390;8.640;2023-04-29T09:31:05;99138.09;;;14.59;92.55
54389;BME280;40975;50.390;8.640;2023-04-29T09:33:54;99143.44;;;14.59;93.04
54389;BME280;40975;50.390;8.640;2023-04-29T09:36:42;99150.91;;;14.81;93.27
54389;BME280;40975;50.390;8.640;2023-04-29T09:39:14;99145.59;;;15.12;90.37
54389;BME280;40975;50.390;8.640;2023-04-29T09:44:19;99142.94;;;15.35;84.21
54389;BME280;40975;50.390;8.640;2023-04-29T09:47:08;99152.03;;;15.96;87.74
54389;BME280;40975;50.390;8.640;2023-04-29T09:49:34;99149.72;;;15.93;84.70
54389;BME280;40975;50.390;8.640;2023-04-29T09:52:09;99152.72;;;15.75;83.48
54389;BME280;40975;50.390;8.640;2023-04-29T09:54:36;99147.22;;;15.68;83.75
54389;BME280;40975;50.390;8.640;2023-04-29T09:57:03;99154.13;;;15.85;81.83
54389;BME280;40975;50.390;8.640;2023-04-29T09:59:33;99150.75;;;16.60;79.01
54389;BME280;40975;50.390;8.640;2023-04-29T10:02:00;99149.38;;;18.53;74.60
54389;BME280;40975;50.390;8.640;2023-04-29T10:04:28;99141.22;;;19.16;69.21
54389;BME280;40975;50.390;8.640;2023-04-29T10:06:57;99156.59;;;18.87;71.37
54389;BME280;40975;50.390;8.640;2023-04-29T10:09:24;99150.28;;;20.17;68.07
54389;BME280;40975;50.390;8.640;2023-04-29T10:11:51;99153.94;;;19.63;68.35
54389;BME280;40975;50.390;8.640;2023-04-29T10:14:18;99161.63;;;18.97;68.21
54389;BME280;40975;50.390;8.640;2023-04-29T10:16:58;99156.91;;;19.06;67.70
54389;BME280;40975;50.390;8.640;2023-04-29T10:19:32;99161.19;;;18.93;66.99
54389;BME280;40975;50.390;8.640;2023-04-29T10:22:11;99154.25;;;19.13;68.86
54389;BME280;40975;50.390;8.640;2023-04-29T10:24:37;99156.81;;;18.51;67.85
54389;BME280;40975;50.390;8.640;2023-04-29T10:27:06;99161.34;;;18.85;66.60
54389;BME280;40975;50.390;8.640;2023-04-29T10:29:35;99150.66;;;19.61;64.18
54389;BME280;40975;50.390;8.640;2023-04-29T10:32:02;99157.72;;;18.64;67.14
54389;BME280;40975;50.390;8.640;2023-04-29T10:34:29;99160.19;;;18.59;70.29
54389;BME280;40975;50.390;8.640;2023-04-29T10:36:56;99154.25;;;17.85;70.54
54389;BME280;40975;50.390;8.640;2023-04-29T10:39:31;99154.28;;;17.27;71.50
54389;BME280;40975;50.390;8.640;2023-04-29T10:42:02;99157.13;;;16.74;74.34
54389;BME280;40975;50.390;8.640;2023-04-29T10:44:29;99171.66;;;16.11;82.02
54389;BME280;40975;50.390;8.640;2023-04-29T10:47:18;99163.47;;;15.66;82.07
54389;BME280;40975;50.390;8.640;2023-04-29T10:50:01;99173.41;;;15.26;84.06
54389;BME280;40975;50.390;8.640;2023-04-29T10:52:28;99172.00;;;15.07;87.08
54389;BME280;40975;50.390;8.640;2023-04-29T10:55:03;99183.78;;;14.89;88.39
54389;BME280;40975;50.390;8.640;2023-04-29T10:57:28;99179.88;;;14.52;89.76
54389;BME280;40975;50.390;8.640;2023-04-29T10:59:54;99180.06;;;14.26;90.98
54389;BME280;40975;50.390;8.640;2023-04-29T11:02:20;99180.91;;;13.93;92.57
54389;BME280;40975;50.390;8.640;2023-04-29T11:05:08;99186.25;;;13.68;93.40
54389;BME280;40975;50.390;8.640;2023-04-29T11:07:34;99195.44;;;13.66;96.50
54389;BME280;40975;50.390;8.640;2023-04-29T11:10:01;99187.56;;;13.56;97.17
54389;BME280;40975;50.390;8.640;2023-04-29T11:12:27;99192.97;;;13.38;97.86
54389;BME280;40975;50.390;8.640;2023-04-29T11:14:52;99189.16;;;13.32;97.10
54389;BME280;40975;50.390;8.640;2023-04-29T11:17:19;99181.00;;;13.34;97.13
54389;BME280;40975;50.390;8.640;2023-04-29T11:19:46;99182.22;;;13.48;98.89
54389;BME280;40975;50.390;8.640;2023-04-29T11:29:57;99191.09;;;14.06;94.56
54389;BME280;40975;50.390;8.640;2023-04-29T11:32:28;99184.59;;;14.17;93.66
54389;BME280;40975;50.390;8.640;2023-04-29T11:34:55;99194.75;;;14.22;93.29
54389;BME280;40975;50.390;8.640;2023-04-29T11:37:31;99196.59;;;14.29;94.01
54389;BME280;40975;50.390;8.640;2023-04-29T11:40:00;99192.41;;;14.10;93.78
54389;BME280;40975;50.390;8.640;2023-04-29T11:42:26;99196.28;;;13.99;93.57
54389;BME280;40975;50.390;8.640;2023-04-29T11:44:52;99204.75;;;13.70;96.99
54389;BME280;40975;50.390;8.640;2023-04-29T11:47:18;99207.41;;;13.53;98.58
54389;BME280;40975;50.390;8.640;2023-04-29T11:49:45;99212.84;;;13.44;100.00
54389;BME280;40975;50.390;8.640;2023-04-29T11:52:11;99207.81;;;13.32;100.00
54389;BME280;40975;50.390;8.640;2023-04-29T11:54:37;99209.72;;;13.05;100.00
54389;BME280;40975;50.390;8.640;2023-04-29T11:57:02;99210.34;;;12.99;100.00
54389;BME280;40975;50.390;8.640;2023-04-29T11:59:30;99216.38;;;13.01;100.00
54389;BME280;40975;50.390;8.640;2023-04-29T12:01:57;99216.31;;;12.93;100.00
54389;BME280;40975;50.390;8.640;2023-04-29T12:04:23;99213.84;;;13.00;100.00
54389;BME280;40975;50.390;8.640;2023-04-29T12:06:52;99216.09;;;13.21;100.00
54389;BME280;40975;50.390;8.640;2023-04-29T12:09:17;99215.16;;;13.38;100.00
54389;BME280;40975;50.390;8.640;2023-04-29T12:11:43;99211.56;;;13.56;100.00
54389;BME280;40975;50.390;8.640;2023-04-29T12:14:09;99212.44;;;13.81;100.00
54389;BME280;40975;50.390;8.640;2023-04-29T12:16:35;99212.09;;;14.01;99.83
54389;BME280;40975;50.390;8.640;2023-04-29T12:19:01;99218.94;;;14.20;98.93
54389;BME280;40975;50.390;8.640;2023-04-29T12:21:27;99220.09;;;14.34;98.89
54389;BME280;40975;50.390;8.640;2023-04-29T12:23:52;99208.91;;;14.39;97.48
54389;BME280;40975;50.390;8.640;2023-04-29T12:26:18;99211.91;;;14.52;95.28
54389;BME280;40975;50.390;8.640;2023-04-29T12:28:45;99218.38;;;14.58;95.22
54389;BME280;40975;50.390;8.640;2023-04-29T12:31:13;99213.41;;;14.55;94.52
54389;BME280;40975;50.390;8.640;2023-04-29T12:33:42;99218.22;;;14.59;93.93
54389;BME280;40975;50.390;8.640;2023-04-29T12:36:15;99224.06;;;14.63;93.79
54389;BME280;40975;50.390;8.640;2023-04-29T12:38:46;99214.38;;;14.62;91.03
54389;BME280;40975;50.390;8.640;2023-04-29T12:41:11;99209.56;;;14.49;91.15
54389;BME280;40975;50.390;8.640;2023-04-29T12:43:38;99221.94;;;14.34;93.62
54389;BME280;40975;50.390;8.640;2023-04-29T12:46:06;99217.44;;;14.26;90.77
54389;BME280;40975;50.390;8.640;2023-04-29T12:48:38;99219.09;;;14.35;90.98
54389;BME280;40975;50.390;8.640;2023-04-29T12:51:10;99224.91;;;14.47;93.94
54389;BME280;40975;50.390;8.640;2023-04-29T12:53:35;99224.25;;;14.61;94.05
54389;BME280;40975;50.390;8.640;2023-04-29T12:56:01;99225.09;;;14.45;92.84
54389;BME280;40975;50.390;8.640;2023-04-29T12:58:30;99222.63;;;14.19;93.70
54389;BME280;40975;50.390;8.640;2023-04-29T13:00:56;99235.47;;;14.15;94.00
54389;BME280;40975;50.390;8.640;2023-04-29T13:03:22;99238.78;;;14.09;95.17
54389;BME280;40975;50.390;8.640;2023-04-29T13:05:48;99239.13;;;14.14;95.06
54389;BME280;40975;50.390;8.640;2023-04-29T13:08:16;99235.31;;;13.92;98.00
54389;BME280;40975;50.390;8.640;2023-04-29T13:10:42;99234.44;;;13.83;96.16
54389;BME280;40975;50.390;8.640;2023-04-29T13:13:07;99244.06;;;13.68;98.00
54389;BME280;40975;50.390;8.640;2023-04-29T13:15:34;99239.91;;;13.65;97.34
54389;BME280;40975;50.390;8.640;2023-04-29T13:18:00;99242.75;;;13.64;99.02
54389;BME280;40975;50.390;8.640;2023-04-29T13:20:26;99248.09;;;13.72;98.79